Time;durP1;ratioP1;P1;durP2;ratioP2;P2;SDS_P1;SDS_P2;PMS_P1;PMS_P2;Temp;Humidity;BMP_temperature;BMP_pressure;BME280_temperature;BME280_humidity;BME280_pressure;Samples;Min_cycle;Max_cycle;Signal;HPM_P1;HPM_P2
2023/10/07 00:03:30;;;;;;;5.17;4.10;;;;;;;9.01;100.00;98453.41;6169422;28;20251;-59
2023/10/07 00:06:34;;;;;;;7.73;4.20;;;;;;;8.98;100.00;98454.66;6163677;28;20623;-59
2023/10/07 00:09:41;;;;;;;7.73;4.43;;;;;;;8.96;100.00;98450.56;6175734;28;20782;-58
2023/10/07 00:12:43;;;;;;;7.30;4.23;;;;;;;8.88;100.00;98451.66;6147154;28;20234;-59
2023/10/07 00:15:51;;;;;;;6.70;4.03;;;;;;;8.84;100.00;98449.63;6149891;28;20228;-58
2023/10/07 00:18:54;;;;;;;7.37;4.53;;;;;;;8.76;100.00;98443.50;6169590;28;20395;-58
2023/10/07 00:21:59;;;;;;;7.97;4.20;;;;;;;8.77;100.00;98447.00;6154437;28;20768;-56
2023/10/07 00:25:02;;;;;;;6.33;4.33;;;;;;;8.75;100.00;98441.88;6162378;28;20262;-55
2023/10/07 00:28:17;;;;;;;5.00;3.43;;;;;;;8.73;100.00;98443.13;6177643;28;20229;-59
2023/10/07 00:31:25;;;;;;;8.40;4.10;;;;;;;8.60;100.00;98428.06;6173966;28;20238;-59
2023/10/07 00:34:31;;;;;;;7.03;3.80;;;;;;;8.65;100.00;98440.69;6163656;28;20604;-57
2023/10/07 00:37:34;;;;;;;5.40;3.57;;;;;;;8.67;100.00;98431.50;6160847;28;20234;-58
2023/10/07 00:40:45;;;;;;;6.97;3.53;;;;;;;8.63;100.00;98425.00;6163185;28;20258;-58
2023/10/07 00:43:49;;;;;;;8.87;3.87;;;;;;;8.69;100.00;98426.78;6164553;28;20715;-57
2023/10/07 00:47:11;;;;;;;6.83;3.67;;;;;;;8.70;100.00;98425.75;6198450;28;20255;-53
2023/10/07 00:50:15;;;;;;;7.23;4.10;;;;;;;8.78;100.00;98424.72;6167318;28;20703;-58
2023/10/07 00:53:24;;;;;;;6.83;3.50;;;;;;;8.77;100.00;98429.22;6151243;28;20234;-56
2023/10/07 00:56:42;;;;;;;7.30;3.90;;;;;;;8.74;100.00;98426.97;6172352;28;20721;-58
2023/10/07 00:59:51;;;;;;;7.40;3.63;;;;;;;8.76;100.00;98422.25;6162520;28;20227;-57
2023/10/07 01:03:06;;;;;;;7.00;4.10;;;;;;;8.63;100.00;98398.44;6164235;28;20235;-58
2023/10/07 01:06:12;;;;;;;6.13;3.60;;;;;;;8.73;100.00;98417.38;6193111;28;20227;-56
2023/10/07 01:09:22;;;;;;;8.37;4.07;;;;;;;8.75;100.00;98403.88;6166930;28;20698;-59
2023/10/07 01:12:25;;;;;;;5.67;3.97;;;;;;;8.79;100.00;98395.28;6166354;28;20223;-59
2023/10/07 01:15:29;;;;;;;5.63;3.97;;;;;;;8.81;100.00;98397.72;6167067;28;20229;-58
2023/10/07 01:18:38;;;;;;;7.47;3.90;;;;;;;8.83;100.00;98394.84;6173807;28;20713;-58
2023/10/07 01:21:55;;;;;;;5.70;4.10;;;;;;;8.84;100.00;98393.81;6141689;28;20906;-58
2023/10/07 01:24:58;;;;;;;7.77;4.00;;;;;;;8.84;100.00;98385.84;6153276;28;20382;-59
2023/10/07 01:28:02;;;;;;;5.80;3.60;;;;;;;8.89;100.00;98389.50;6163085;28;20770;-59
2023/10/07 01:31:09;;;;;;;5.10;3.83;;;;;;;8.94;100.00;98389.69;6148666;28;20328;-61
2023/10/07 01:34:16;;;;;;;5.03;3.93;;;;;;;9.00;100.00;98388.81;6171542;28;20228;-59
2023/10/07 01:37:21;;;;;;;6.23;3.53;;;;;;;8.98;100.00;98377.59;6172140;28;20248;-57
2023/10/07 01:44:16;;;;;;;5.17;3.40;;;;;;;9.15;100.00;98375.22;6149373;28;20401;-58
2023/10/07 01:47:24;;;;;;;5.93;3.63;;;;;;;9.18;100.00;98372.13;6158143;28;20306;-56
2023/10/07 01:50:32;;;;;;;5.83;3.60;;;;;;;9.21;100.00;98369.06;6166094;28;20261;-56
2023/10/07 01:53:34;;;;;;;8.20;3.50;;;;;;;9.28;100.00;98375.13;6166021;28;20743;-58
2023/10/07 01:56:38;;;;;;;7.30;3.80;;;;;;;9.32;100.00;98372.06;6168908;28;20716;-59
2023/10/07 01:59:40;;;;;;;6.23;3.87;;;;;;;9.40;100.00;98363.78;6169749;28;21143;-58
2023/10/07 02:02:49;;;;;;;6.03;3.67;;;;;;;9.57;100.00;98357.72;6154522;28;20287;-57
2023/10/07 02:05:52;;;;;;;7.77;3.70;;;;;;;9.57;100.00;98356.91;6171252;28;20225;-58
2023/10/07 02:08:57;;;;;;;5.13;3.33;;;;;;;9.65;100.00;98361.13;6153288;28;20726;-59
2023/10/07 02:12:10;;;;;;;5.03;3.60;;;;;;;9.60;100.00;98345.00;6155405;28;20248;-54
2023/10/07 02:15:19;;;;;;;5.87;3.63;;;;;;;9.71;100.00;98355.75;6161986;28;20690;-56
2023/10/07 02:18:22;;;;;;;5.30;3.47;;;;;;;9.78;100.00;98348.50;6166732;28;20243;-59
2023/10/07 02:21:26;;;;;;;5.00;3.30;;;;;;;9.89;100.00;98356.78;6175423;28;20990;-58
2023/10/07 02:24:30;;;;;;;6.33;3.80;;;;;;;9.97;100.00;98351.19;6170150;28;20248;-61
2023/10/07 02:27:41;;;;;;;5.27;3.37;;;;;;;10.11;100.00;98349.19;6163723;28;20234;-58
2023/10/07 02:31:02;;;;;;;4.77;3.43;;;;;;;10.15;100.00;98353.88;6153277;28;20242;-58
2023/10/07 02:34:08;;;;;;;4.47;3.07;;;;;;;10.31;100.00;98347.16;6158537;28;20331;-58
2023/10/07 02:37:13;;;;;;;5.93;3.27;;;;;;;10.45;100.00;98348.63;6170540;28;20236;-56
2023/10/07 02:40:22;;;;;;;7.07;3.27;;;;;;;10.58;100.00;98345.75;6195303;28;20299;-54
2023/10/07 02:43:27;;;;;;;5.00;3.17;;;;;;;10.74;100.00;98343.53;6152241;28;20233;-59
2023/10/07 02:46:32;;;;;;;4.90;3.33;;;;;;;10.86;100.00;98328.38;6184225;28;20245;-58
2023/10/07 02:49:35;;;;;;;4.80;2.80;;;;;;;11.32;100.00;98340.97;6179406;28;20650;-58
2023/10/07 02:52:39;;;;;;;5.03;3.03;;;;;;;11.62;98.68;98327.56;6163873;28;20665;-57
2023/10/07 02:55:54;;;;;;;4.23;3.10;;;;;;;11.83;98.84;98330.72;6164054;28;20267;-57
2023/10/07 02:59:00;;;;;;;5.73;2.80;;;;;;;11.94;97.56;98321.88;6168533;28;20240;-56
2023/10/07 03:05:29;;;;;;;5.53;3.10;;;;;;;12.34;94.33;98329.91;6169062;28;20631;-58
2023/10/07 03:08:48;;;;;;;4.63;3.43;;;;;;;12.80;85.11;98312.06;6175414;28;20240;-54
2023/10/07 03:11:53;;;;;;;4.67;2.97;;;;;;;13.27;85.85;98319.03;6168538;28;20242;-58
2023/10/07 03:15:03;;;;;;;5.23;2.83;;;;;;;13.37;84.23;98321.88;6157871;28;20741;-58
2023/10/07 03:18:21;;;;;;;6.30;3.10;;;;;;;13.52;82.09;98316.75;6188297;28;20226;-59
2023/10/07 03:21:35;;;;;;;5.33;3.00;;;;;;;13.81;77.03;98308.59;6144110;28;20235;-57
2023/10/07 03:24:48;;;;;;;5.63;2.63;;;;;;;14.19;74.79;98316.59;6165443;28;20233;-59
2023/10/07 03:27:51;;;;;;;4.77;2.53;;;;;;;14.40;74.58;98314.97;6166481;28;20227;-58
2023/10/07 03:30:56;;;;;;;4.70;2.73;;;;;;;14.65;70.86;98317.16;6174224;28;20229;-58
2023/10/07 03:33:58;;;;;;;6.00;3.00;;;;;;;14.63;69.15;98303.19;6177805;28;20217;-53
2023/10/07 03:40:25;;;;;;;8.27;3.23;;;;;;;14.92;67.43;98305.59;6163380;28;20242;-58
2023/10/07 03:43:28;;;;;;;5.10;2.93;;;;;;;15.09;66.31;98305.50;6163662;28;20722;-56
2023/10/07 03:46:30;;;;;;;4.27;2.97;;;;;;;15.17;66.15;98300.47;6158002;28;20237;-59
2023/10/07 03:49:39;;;;;;;5.20;3.27;;;;;;;15.29;65.30;98297.59;6156409;28;20248;-59
2023/10/07 03:52:42;;;;;;;4.60;2.83;;;;;;;15.29;67.06;98291.44;6158091;28;20578;-53
2023/10/07 03:55:44;;;;;;;5.70;2.77;;;;;;;15.27;67.54;98299.75;6175839;28;20243;-58
2023/10/07 03:58:47;;;;;;;3.77;2.63;;;;;;;15.15;67.78;98309.84;6169308;28;20706;-59
2023/10/07 04:01:53;;;;;;;4.63;2.53;;;;;;;15.28;65.92;98292.50;6160003;28;20241;-59
2023/10/07 04:05:09;;;;;;;3.07;2.40;;;;;;;15.21;65.36;98280.09;6168602;28;20235;-59
2023/10/07 04:08:13;;;;;;;4.53;2.30;;;;;;;15.28;66.67;98301.38;6156072;28;20235;-58
2023/10/07 04:11:16;;;;;;;4.23;2.83;;;;;;;15.16;66.29;98295.34;6167922;28;20225;-59
2023/10/07 04:14:27;;;;;;;5.83;2.87;;;;;;;15.18;66.12;98287.88;6163121;28;20614;-59
2023/10/07 04:17:31;;;;;;;3.90;2.70;;;;;;;15.14;67.12;98295.63;6165237;28;20230;-59
2023/10/07 04:20:51;;;;;;;4.47;2.60;;;;;;;15.12;67.17;98289.69;6175584;28;20233;-59
2023/10/07 04:23:53;;;;;;;4.13;2.30;;;;;;;14.98;68.05;98296.56;6160772;28;20233;-58
2023/10/07 04:27:01;;;;;;;4.83;2.57;;;;;;;14.94;68.29;98293.56;6161794;28;20651;-59
2023/10/07 04:30:09;;;;;;;4.47;2.77;;;;;;;14.81;68.74;98298.53;6164913;28;20241;-58
2023/10/07 04:33:12;;;;;;;4.60;2.87;;;;;;;14.71;69.18;98286.63;6162735;28;20571;-56
2023/10/07 04:36:18;;;;;;;4.60;2.87;;;;;;;14.69;68.46;98283.41;6172344;28;20228;-58
2023/10/07 04:39:27;;;;;;;5.77;2.67;;;;;;;15.00;65.39;98282.88;6168926;28;20307;-56
2023/10/07 04:42:47;;;;;;;5.10;3.03;;;;;;;15.45;62.12;98277.84;6171798;28;20324;-55
2023/10/07 04:45:49;;;;;;;5.57;2.80;;;;;;;15.55;63.38;98284.34;6165707;28;20248;-58
2023/10/07 04:48:56;;;;;;;4.73;2.43;;;;;;;15.45;64.56;98280.53;6162652;28;20283;-57
2023/10/07 04:51:59;;;;;;;4.20;2.90;;;;;;;15.40;64.12;98288.56;6155594;28;20237;-59
2023/10/07 04:55:01;;;;;;;4.43;2.50;;;;;;;15.59;62.80;98277.41;6164286;28;20236;-58
2023/10/07 04:58:04;;;;;;;3.43;2.33;;;;;;;15.45;65.00;98280.53;6163764;28;20728;-57
2023/10/07 05:01:22;;;;;;;5.30;3.13;;;;;;;15.61;61.72;98294.06;6169503;28;20736;-56
2023/10/07 05:04:24;;;;;;;5.47;3.10;;;;;;;16.03;60.08;98286.00;6176501;28;20248;-58
2023/10/07 05:07:27;;;;;;;5.17;3.13;;;;;;;16.08;59.75;98288.72;6167957;28;20717;-57
2023/10/07 05:10:29;;;;;;;5.00;2.93;;;;;;;16.07;59.92;98300.53;6160508;28;20677;-57
2023/10/07 05:13:35;;;;;;;4.83;3.13;;;;;;;16.07;59.74;98305.91;6160176;28;20243;-56
2023/10/07 05:16:37;;;;;;;5.97;3.47;;;;;;;16.27;58.49;98296.31;6163591;28;20271;-57
2023/10/07 05:19:40;;;;;;;4.90;3.20;;;;;;;16.14;59.64;98308.34;6161713;28;20811;-58
2023/10/07 05:22:42;;;;;;;3.23;2.60;;;;;;;16.12;59.96;98308.63;6168130;28;20237;-58
2023/10/07 05:25:48;;;;;;;7.17;2.50;;;;;;;16.09;62.00;98311.00;6170612;28;20234;-58
2023/10/07 05:28:52;;;;;;;5.50;2.93;;;;;;;15.77;64.62;98311.94;6173274;28;20233;-58
2023/10/07 05:31:56;;;;;;;4.87;2.90;;;;;;;15.41;66.00;98308.16;6157477;28;20749;-56
2023/10/07 05:34:59;;;;;;;3.33;2.30;;;;;;;15.17;67.37;98311.22;6153104;28;20292;-57
2023/10/07 05:38:04;;;;;;;3.93;2.60;;;;;;;15.01;69.37;98306.75;6161626;28;20276;-58
2023/10/07 05:41:12;;;;;;;3.07;2.47;;;;;;;14.96;68.96;98306.72;6164373;28;20718;-58
2023/10/07 05:44:15;;;;;;;4.70;3.00;;;;;;;14.94;67.00;98306.16;6164572;28;20233;-58
2023/10/07 05:47:17;;;;;;;5.20;3.10;;;;;;;15.19;66.64;98310.94;6167436;28;20226;-58
2023/10/07 05:50:22;;;;;;;6.17;2.50;;;;;;;15.19;68.06;98306.38;6174503;28;20336;-58
2023/10/07 05:53:24;;;;;;;4.17;2.67;;;;;;;15.28;67.19;98322.84;6173795;28;20222;-57
2023/10/07 05:56:27;;;;;;;6.23;2.73;;;;;;;15.39;65.84;98329.91;6154703;28;20260;-59
2023/10/07 05:59:33;;;;;;;4.03;3.00;;;;;;;15.69;63.24;98339.28;6161859;28;20245;-56
2023/10/07 06:02:40;;;;;;;5.13;2.83;;;;;;;16.06;61.17;98323.13;6161856;28;20666;-58
2023/10/07 06:05:43;;;;;;;5.17;3.27;;;;;;;16.03;62.43;98339.75;6164067;28;20240;-58
2023/10/07 06:08:45;;;;;;;4.43;3.30;;;;;;;16.11;61.64;98325.81;6165013;28;20233;-58
2023/10/07 06:11:50;;;;;;;5.33;3.10;;;;;;;16.22;60.10;98332.84;6170655;28;20265;-58
2023/10/07 06:14:54;;;;;;;3.87;2.80;;;;;;;16.17;62.88;98334.72;6174870;28;20731;-56
2023/10/07 06:17:56;;;;;;;5.20;3.03;;;;;;;16.20;61.31;98331.50;6157721;28;20226;-59
2023/10/07 06:21:17;;;;;;;5.03;3.00;;;;;;;16.16;62.70;98346.53;6159340;28;20226;-61
2023/10/07 06:24:30;;;;;;;4.03;2.87;;;;;;;16.07;63.10;98345.41;6163931;28;20234;-58
2023/10/07 06:27:37;;;;;;;6.03;3.00;;;;;;;16.10;62.78;98353.75;6166744;28;20248;-58
2023/10/07 06:30:42;;;;;;;4.47;3.07;;;;;;;16.31;61.46;98356.56;6167348;28;20395;-59
2023/10/07 06:34:01;;;;;;;3.87;2.87;;;;;;;16.29;62.45;98358.69;6166376;28;20614;-58
2023/10/07 06:37:05;;;;;;;4.13;2.90;;;;;;;16.30;61.22;98376.44;6170469;28;20248;-59
2023/10/07 06:40:28;;;;;;;3.53;2.50;;;;;;;16.30;61.85;98373.75;6148335;28;20321;-59
2023/10/07 06:43:30;;;;;;;4.47;3.13;;;;;;;16.37;61.13;98375.13;6148301;28;20951;-58
2023/10/07 06:46:42;;;;;;;5.10;3.10;;;;;;;16.47;60.69;98371.69;6159891;28;20255;-58
2023/10/07 06:49:44;;;;;;;5.43;3.27;;;;;;;16.65;59.08;98381.97;6162242;28;20283;-56
2023/10/07 06:52:49;;;;;;;7.00;3.50;;;;;;;16.65;60.12;98379.28;6164933;28;20329;-56
2023/10/07 06:55:51;;;;;;;5.23;3.20;;;;;;;16.87;58.61;98386.38;6152910;28;20233;-59
2023/10/07 06:58:54;;;;;;;5.33;3.17;;;;;;;16.84;59.51;98384.19;6167302;28;20226;-58
2023/10/07 07:01:57;;;;;;;5.67;3.50;;;;;;;16.86;58.89;98392.84;6168390;28;20262;-57
2023/10/07 07:04:59;;;;;;;7.40;3.83;;;;;;;17.07;56.84;98386.41;6158874;28;20618;-59
2023/10/07 07:08:04;;;;;;;4.83;3.10;;;;;;;17.25;55.33;98388.63;6156737;28;20752;-56
2023/10/07 07:11:10;;;;;;;4.67;3.27;;;;;;;17.04;57.09;98389.63;6153505;28;20230;-58
2023/10/07 07:14:12;;;;;;;5.77;3.33;;;;;;;16.99;57.42;98386.94;6166420;28;20344;-58
2023/10/07 07:17:30;;;;;;;5.67;3.37;;;;;;;17.00;56.27;98391.25;6154829;28;20801;-59
2023/10/07 07:20:48;;;;;;;5.37;3.20;;;;;;;17.20;55.46;98383.22;6180032;28;20259;-59
2023/10/07 07:23:51;;;;;;;6.73;3.57;;;;;;;17.34;54.23;98363.81;6175849;28;20702;-58
2023/10/07 07:26:54;;;;;;;4.57;2.90;;;;;;;17.46;55.23;98383.25;6150717;28;20238;-57
2023/10/07 07:29:57;;;;;;;5.00;3.20;;;;;;;17.46;54.54;98391.31;6162937;28;20230;-58
2023/10/07 07:33:28;;;;;;;5.40;3.43;;;;;;;17.40;56.82;98390.50;6164444;28;20700;-56
2023/10/07 07:36:39;;;;;;;6.70;3.30;;;;;;;17.52;55.90;98399.13;6159710;28;20242;-59
2023/10/07 07:39:41;;;;;;;5.37;3.43;;;;;;;17.66;55.25;98396.72;6174231;28;20226;-59
2023/10/07 07:42:55;;;;;;;6.13;3.70;;;;;;;17.77;55.88;98408.31;6175911;28;20225;-57
2023/10/07 07:46:17;;;;;;;10.00;4.20;;;;;;;18.10;54.25;98408.81;6171779;28;20601;-58
2023/10/07 07:49:27;;;;;;;7.77;3.67;;;;;;;18.00;55.19;98404.25;6158216;28;20269;-59
2023/10/07 07:52:32;;;;;;;7.10;4.33;;;;;;;18.11;55.54;98408.53;6165832;28;20244;-58
2023/10/07 07:55:37;;;;;;;8.37;4.60;;;;;;;18.31;54.53;98413.09;6161401;28;20256;-58
2023/10/07 07:58:49;;;;;;;6.53;3.73;;;;;;;18.34;54.89;98422.53;6162627;28;20334;-58
2023/10/07 08:02:01;;;;;;;5.90;3.90;;;;;;;18.24;57.20;98415.28;6155985;28;20319;-58
2023/10/07 08:05:04;;;;;;;5.93;3.53;;;;;;;18.22;56.72;98436.28;6170342;28;20320;-58
2023/10/07 08:08:24;;;;;;;7.10;3.83;;;;;;;18.26;55.04;98416.59;6171107;28;20236;-58
2023/10/07 08:11:26;;;;;;;6.83;3.80;;;;;;;18.26;55.78;98416.59;6163323;28;20234;-55
2023/10/07 08:14:28;;;;;;;5.50;4.03;;;;;;;18.48;54.05;98423.56;6161028;28;20233;-59
2023/10/07 08:17:31;;;;;;;5.87;4.17;;;;;;;18.49;53.96;98422.47;6161670;28;20233;-58
2023/10/07 08:20:37;;;;;;;6.23;3.63;;;;;;;18.48;54.97;98442.47;6164434;28;20244;-55
2023/10/07 08:23:40;;;;;;;5.40;3.40;;;;;;;18.62;54.76;98437.25;6164341;28;20723;-56
2023/10/07 08:26:48;;;;;;;6.50;4.43;;;;;;;18.61;54.97;98422.97;6167758;28;20745;-62
2023/10/07 08:29:53;;;;;;;6.43;3.87;;;;;;;18.55;55.05;98432.97;6174373;28;20233;-59
2023/10/07 08:32:55;;;;;;;7.60;4.30;;;;;;;18.75;50.76;98434.03;6173316;28;20880;-59
2023/10/07 08:35:58;;;;;;;6.43;3.77;;;;;;;18.68;50.54;98450.53;6157011;28;20320;-58
2023/10/07 08:39:04;;;;;;;7.07;3.83;;;;;;;18.77;50.27;98423.78;6166077;28;20728;-58
2023/10/07 08:42:12;;;;;;;5.77;3.67;;;;;;;18.76;50.02;98422.94;6163880;28;20241;-57
2023/10/07 08:45:15;;;;;;;6.27;4.07;;;;;;;18.70;48.96;98418.66;6168946;28;20587;-59
2023/10/07 08:48:17;;;;;;;6.30;3.90;;;;;;;18.96;46.46;98407.72;6178343;28;20221;-57
2023/10/07 08:51:24;;;;;;;5.13;3.60;;;;;;;19.08;47.76;98424.41;6168826;28;20241;-59
2023/10/07 08:54:26;;;;;;;6.60;3.80;;;;;;;19.10;47.28;98416.03;6178554;28;20233;-56
2023/10/07 08:57:29;;;;;;;6.60;3.40;;;;;;;19.11;45.44;98409.53;6160966;28;20594;-58
2023/10/07 09:00:38;;;;;;;6.33;3.47;;;;;;;19.26;45.32;98417.53;6161012;28;20236;-58
2023/10/07 09:03:41;;;;;;;6.90;3.50;;;;;;;19.37;43.25;98415.59;6161584;28;20325;-58
2023/10/07 09:06:50;;;;;;;5.67;3.73;;;;;;;19.66;40.94;98408.38;6162368;28;20779;-58
2023/10/07 09:09:53;;;;;;;5.07;3.30;;;;;;;19.69;42.74;98407.00;6167479;28;20252;-58
2023/10/07 09:13:03;;;;;;;6.00;3.63;;;;;;;19.67;41.28;98401.88;6168796;28;20597;-57
2023/10/07 09:16:10;;;;;;;5.87;3.40;;;;;;;19.46;41.02;98395.81;6174921;28;20724;-57
2023/10/07 09:19:19;;;;;;;6.40;3.90;;;;;;;19.39;41.40;98399.91;6161807;28;20234;-57
2023/10/07 09:22:24;;;;;;;4.70;3.07;;;;;;;19.39;42.61;98402.59;6157311;28;20605;-59
2023/10/07 09:25:31;;;;;;;5.23;3.47;;;;;;;19.59;42.99;98403.28;6162009;28;20287;-59
2023/10/07 09:28:38;;;;;;;5.30;3.23;;;;;;;19.75;39.91;98390.47;6164034;28;20264;-58
2023/10/07 09:31:42;;;;;;;6.23;3.63;;;;;;;19.87;39.11;98387.38;6151710;28;20269;-55
2023/10/07 09:34:45;;;;;;;5.90;3.07;;;;;;;19.83;40.13;98380.91;6170518;28;20233;-56
2023/10/07 09:37:48;;;;;;;5.57;3.37;;;;;;;19.85;38.38;98386.84;6173640;28;20600;-59
2023/10/07 09:44:26;;;;;;;5.30;3.43;;;;;;;20.02;39.69;98368.28;6149135;28;20257;-59
2023/10/07 09:47:28;;;;;;;4.63;3.20;;;;;;;20.09;39.45;98374.16;6160843;28;20324;-58
2023/10/07 09:50:34;;;;;;;5.27;3.63;;;;;;;20.46;33.97;98351.03;6163645;28;20236;-58
2023/10/07 09:54:02;;;;;;;5.30;3.53;;;;;;;20.53;33.30;98351.50;6166369;28;20248;-52
2023/10/07 09:57:42;;;;;;;4.40;2.83;;;;;;;20.72;32.32;98345.31;6157180;28;20242;-59
2023/10/07 10:01:05;;;;;;;4.43;2.90;;;;;;;20.77;31.75;98353.38;6170051;28;20233;-58
2023/10/07 10:04:28;;;;;;;5.20;3.23;;;;;;;20.86;34.20;98338.88;6170022;28;20229;-57
2023/10/07 10:07:59;;;;;;;4.43;3.17;;;;;;;20.86;35.98;98338.88;6158467;28;20907;-58
2023/10/07 10:11:09;;;;;;;6.30;3.43;;;;;;;21.01;30.56;98345.16;6142277;28;20242;-58
2023/10/07 10:17:22;;;;;;;5.50;3.67;;;;;;;21.41;26.68;98346.47;6166071;28;20232;-58
2023/10/07 10:20:42;;;;;;;5.20;3.40;;;;;;;21.41;29.03;98332.91;6172006;28;20237;-58
2023/10/07 10:23:50;;;;;;;5.17;3.60;;;;;;;21.48;29.04;98344.22;6168903;28;20233;-55
2023/10/07 10:27:04;;;;;;;7.70;3.30;;;;;;;21.62;24.34;98331.50;6171211;28;20268;-59
2023/10/07 10:30:06;;;;;;;4.10;3.20;;;;;;;21.65;28.74;98324.66;6158692;28;20230;-56
2023/10/07 10:33:19;;;;;;;5.40;3.50;;;;;;;21.84;24.38;98335.44;6161577;28;20838;-59
2023/10/07 10:36:22;;;;;;;6.20;3.40;;;;;;;21.97;25.12;98331.13;6156079;28;20229;-57
2023/10/07 10:39:31;;;;;;;5.27;3.20;;;;;;;21.87;26.50;98308.53;6165057;28;20221;-57
2023/10/07 10:42:48;;;;;;;4.37;2.90;;;;;;;21.78;29.19;98309.53;6168626;28;20231;-59
2023/10/07 10:46:07;;;;;;;4.27;3.10;;;;;;;21.96;27.41;98326.81;6174391;28;20696;-58
2023/10/07 10:49:12;;;;;;;5.77;3.13;;;;;;;21.83;29.37;98304.81;6172067;28;20705;-55
2023/10/07 10:52:15;;;;;;;5.23;3.10;;;;;;;21.98;27.59;98303.72;6159090;28;20249;-59
2023/10/07 10:55:25;;;;;;;6.83;3.33;;;;;;;21.92;27.77;98304.09;6161391;28;20238;-58
2023/10/07 10:58:43;;;;;;;5.10;3.10;;;;;;;21.74;28.98;98308.50;6160340;28;20235;-59
2023/10/07 11:02:01;;;;;;;4.70;3.17;;;;;;;21.66;25.12;98273.94;6169625;28;20233;-56
2023/10/07 11:05:08;;;;;;;6.23;3.33;;;;;;;21.64;24.85;98285.88;6172831;28;20257;-56
2023/10/07 11:08:22;;;;;;;5.03;2.90;;;;;;;21.43;27.22;98281.13;6165398;28;20871;-57
2023/10/07 11:11:29;;;;;;;5.10;3.27;;;;;;;21.26;27.81;98290.59;6167863;28;20324;-59
2023/10/07 11:14:47;;;;;;;5.07;3.03;;;;;;;21.05;25.49;98290.13;6157691;28;20741;-56
2023/10/07 11:18:14;;;;;;;4.20;3.03;;;;;;;20.84;27.14;98261.75;6160650;28;20300;-58
2023/10/07 11:21:18;;;;;;;7.03;3.43;;;;;;;21.04;22.85;98276.88;6143156;28;20874;-59
2023/10/07 11:24:30;;;;;;;5.03;2.83;;;;;;;21.05;23.88;98268.44;6168255;28;20238;-58
2023/10/07 11:27:32;;;;;;;4.13;2.70;;;;;;;20.98;24.67;98259.88;6169346;28;20628;-58
2023/10/07 11:30:48;;;;;;;5.43;2.80;;;;;;;21.34;23.07;98264.75;6178046;28;20237;-59
2023/10/07 11:33:51;;;;;;;4.87;2.83;;;;;;;21.52;23.04;98249.50;6162949;28;20230;-59
2023/10/07 11:36:53;;;;;;;4.80;2.97;;;;;;;21.59;22.69;98250.75;6154602;28;20226;-58
2023/10/07 11:39:56;;;;;;;5.63;3.27;;;;;;;21.80;23.27;98229.44;6161949;28;20592;-59
2023/10/07 11:43:04;;;;;;;5.07;3.20;;;;;;;21.96;23.11;98242.72;6163313;28;20232;-59
2023/10/07 11:46:06;;;;;;;4.53;2.57;;;;;;;21.96;23.41;98232.66;6160686;28;20595;-56
2023/10/07 11:49:12;;;;;;;6.27;3.13;;;;;;;21.93;23.01;98246.84;6168375;28;20403;-57
2023/10/07 11:52:19;;;;;;;5.23;3.03;;;;;;;21.86;22.17;98243.72;6166671;28;20243;-58
2023/10/07 11:55:21;;;;;;;4.30;2.60;;;;;;;21.77;21.84;98238.22;6159317;28;20645;-58
2023/10/07 11:58:24;;;;;;;4.33;2.87;;;;;;;21.53;22.10;98218.59;6163320;28;20239;-60
2023/10/07 12:01:27;;;;;;;5.20;2.50;;;;;;;21.50;22.67;98240.88;6160051;28;20248;-58
2023/10/07 12:04:29;;;;;;;5.20;2.93;;;;;;;21.30;22.76;98229.31;6161564;28;20717;-59
2023/10/07 12:07:31;;;;;;;4.23;2.97;;;;;;;21.20;23.36;98223.22;6158373;28;20241;-59
2023/10/07 12:10:35;;;;;;;5.50;3.40;;;;;;;21.17;23.97;98229.22;6168171;28;20234;-58
2023/10/07 12:13:40;;;;;;;3.63;2.43;;;;;;;21.47;19.86;98217.06;6170057;28;20597;-59
2023/10/07 12:16:43;;;;;;;4.07;2.57;;;;;;;21.47;21.04;98217.06;6171837;28;20227;-59
2023/10/07 12:19:46;;;;;;;3.90;2.43;;;;;;;21.72;19.71;98215.78;6177575;28;20228;-59
2023/10/07 12:22:49;;;;;;;3.73;2.40;;;;;;;21.85;21.05;98213.06;6167232;28;20242;-58
2023/10/07 12:25:51;;;;;;;4.70;2.50;;;;;;;21.88;19.99;98217.09;6162116;28;20728;-59
2023/10/07 12:28:54;;;;;;;7.43;2.77;;;;;;;21.70;22.16;98210.66;6161376;28;20230;-60
2023/10/07 12:31:58;;;;;;;4.63;2.70;;;;;;;21.98;18.34;98226.94;6165084;28;20652;-59
2023/10/07 12:35:00;;;;;;;3.83;2.60;;;;;;;21.85;19.74;98199.50;6162704;28;20628;-59
2023/10/07 12:38:03;;;;;;;5.13;2.50;;;;;;;21.97;19.79;98198.19;6171437;28;20229;-59
2023/10/07 12:41:07;;;;;;;4.10;2.67;;;;;;;21.87;20.69;98191.88;6168674;28;20237;-58
2023/10/07 12:44:10;;;;;;;3.87;2.57;;;;;;;22.04;19.90;98202.09;6173820;28;20243;-59
2023/10/07 12:47:14;;;;;;;3.80;2.30;;;;;;;21.98;20.31;98195.19;6157338;28;20594;-56
2023/10/07 12:50:28;;;;;;;4.20;2.60;;;;;;;22.23;20.25;98218.28;6162352;28;20696;-57
2023/10/07 12:53:31;;;;;;;5.00;2.73;;;;;;;22.03;21.43;98197.00;6150607;28;20236;-60
2023/10/07 12:56:33;;;;;;;3.70;2.17;;;;;;;21.88;22.44;98203.53;6168458;28;20225;-56
2023/10/07 12:59:36;;;;;;;3.77;2.47;;;;;;;21.80;20.58;98201.53;6158681;28;20435;-58
2023/10/07 13:02:38;;;;;;;4.13;2.67;;;;;;;21.77;21.81;98210.25;6175231;28;20308;-56
2023/10/07 13:05:42;;;;;;;5.07;2.77;;;;;;;21.79;24.03;98187.16;6172355;28;20224;-60
2023/10/07 13:08:44;;;;;;;4.97;3.10;;;;;;;21.78;23.09;98215.41;6158896;28;20407;-58
2023/10/07 13:11:49;;;;;;;6.83;2.63;;;;;;;22.03;24.50;98213.28;6161195;28;20226;-59
2023/10/07 13:14:51;;;;;;;4.40;2.77;;;;;;;21.83;25.40;98199.03;6159876;28;20226;-59
2023/10/07 13:17:53;;;;;;;3.67;2.23;;;;;;;21.78;25.98;98209.19;6160146;28;20229;-59
2023/10/07 13:20:55;;;;;;;4.33;3.03;;;;;;;21.66;26.31;98211.56;6153819;28;20373;-59
2023/10/07 13:23:57;;;;;;;4.57;3.03;;;;;;;21.65;27.28;98199.91;6161342;28;20602;-59
2023/10/07 13:27:02;;;;;;;4.13;3.10;;;;;;;21.40;27.49;98203.91;6160900;28;20733;-58
2023/10/07 13:30:05;;;;;;;5.83;3.10;;;;;;;21.37;26.52;98201.78;6163141;28;20238;-59
2023/10/07 13:33:08;;;;;;;6.83;2.93;;;;;;;21.47;27.99;98184.53;6159300;28;20238;-58
2023/10/07 13:36:10;;;;;;;4.07;2.53;;;;;;;21.40;28.43;98190.38;6150422;28;20701;-53
2023/10/07 13:39:15;;;;;;;3.43;2.67;;;;;;;21.26;27.93;98184.09;6158255;28;20221;-58
2023/10/07 13:42:18;;;;;;;5.70;2.90;;;;;;;21.26;28.97;98200.34;6157597;28;20226;-60
2023/10/07 13:45:25;;;;;;;5.33;2.77;;;;;;;21.20;29.23;98188.81;6168380;28;20413;-58
2023/10/07 13:48:28;;;;;;;5.03;2.83;;;;;;;21.05;30.11;98189.06;6163641;28;20237;-59
2023/10/07 13:51:31;;;;;;;5.07;2.93;;;;;;;20.95;29.70;98194.66;6176596;28;20252;-57
2023/10/07 13:54:46;;;;;;;3.77;2.57;;;;;;;20.95;28.38;98190.06;6158035;28;20242;-59
2023/10/07 13:57:56;;;;;;;5.30;2.93;;;;;;;20.92;29.35;98187.13;6153037;28;20235;-58
2023/10/07 14:00:58;;;;;;;4.40;2.87;;;;;;;20.83;30.56;98190.50;6146346;28;20241;-55
2023/10/07 14:04:00;;;;;;;5.93;3.20;;;;;;;20.69;31.59;98208.63;6165547;28;20233;-59
2023/10/07 14:07:05;;;;;;;4.93;2.63;;;;;;;20.77;29.86;98193.59;6164555;28;20248;-59
2023/10/07 14:10:09;;;;;;;6.83;3.23;;;;;;;20.77;30.74;98193.59;6171718;28;20232;-60
2023/10/07 14:13:12;;;;;;;7.47;3.07;;;;;;;20.73;30.15;98187.16;6174569;28;20604;-59
2023/10/07 14:16:17;;;;;;;6.20;3.20;;;;;;;20.79;30.20;98196.84;6157557;28;20241;-59
2023/10/07 14:19:22;;;;;;;3.83;2.70;;;;;;;20.59;31.67;98193.34;6157548;28;20269;-58
2023/10/07 14:22:24;;;;;;;3.43;2.33;;;;;;;20.46;32.57;98213.00;6152101;28;20778;-57
2023/10/07 14:25:27;;;;;;;3.83;2.47;;;;;;;20.36;34.20;98210.44;6159288;28;20281;-58
2023/10/07 14:28:30;;;;;;;5.20;2.77;;;;;;;20.28;32.77;98194.84;6158584;28;20340;-59
2023/10/07 14:31:33;;;;;;;4.37;2.73;;;;;;;20.30;32.85;98209.69;6176031;28;20225;-55
2023/10/07 14:34:35;;;;;;;5.20;2.90;;;;;;;20.47;29.95;98187.56;6176709;28;20240;-59
2023/10/07 14:37:38;;;;;;;5.40;2.80;;;;;;;20.38;31.85;98202.81;6168520;28;20316;-59
2023/10/07 14:40:43;;;;;;;5.23;2.60;;;;;;;20.38;31.10;98210.94;6159114;28;20226;-59
2023/10/07 14:43:45;;;;;;;3.70;2.53;;;;;;;20.43;31.93;98212.75;6157818;28;20631;-59
2023/10/07 14:46:48;;;;;;;4.23;2.50;;;;;;;20.31;34.11;98211.31;6164154;28;20332;-59
2023/10/07 14:49:51;;;;;;;3.77;2.47;;;;;;;20.28;32.22;98220.00;6172762;28;20240;-59
2023/10/07 14:52:53;;;;;;;4.77;3.10;;;;;;;20.27;33.79;98228.41;6161779;28;20248;-58
2023/10/07 14:55:55;;;;;;;3.90;2.67;;;;;;;20.17;33.84;98218.53;6172764;28;20248;-58
2023/10/07 14:58:59;;;;;;;3.90;2.77;;;;;;;20.14;33.01;98227.22;6174575;28;20701;-58